Amarillo, TX (79124)

6:55 PM CDT on October 31, 2014 (GMT -0500)
Bishop Hills | Change Station
CLOSE
Current Station
Personal Weather Station
Location: Amarillo, TX
Elevation: 3607 ft
Nearby Weather Stations

Elev 3607 ft 35.27 °N, 101.96 °W | Updated 4 minutes ago

Clear
Clear
57.4 °F
Feels Like 57.4 °F
N
6.0
Wind Variable Wind from SSE
Gusts 6.0 mph

Today
High -- | Low -- °F
--% Chance of Precip.
Yesterday
High -- | Low -- °F
Precip. -- in
8:08 AM 6:53 PM
First Quarter, 60% visible
Pressure 30.31 in
Visibility 10.0 miles
Clouds Clear
Dew Point 31 °F
Humidity 36%
Rainfall 0.00 in
Snow Depth Not available.
UV 1 out of 12
Pollen 5.10 out of 12
Air Quality Not available.
Flu Activity Not available.
METAR KAMA 312253Z 13011KT 10SM CLR 15/M02 A3034 RMK AO2 SLP262 T01501017

More Conditions Fewer Conditions

Pressure 30.31 in
Visibility 10.0 miles
Clouds Clear
Dew Point 31 °F
Humidity 36%
Rainfall 0.00 in
Snow Depth Not available.
UV 1 out of 12
Pollen 5.10 out of 12
Air Quality Not available.
Flu Activity Not available.
METAR KAMA 312253Z 13011KT 10SM CLR 15/M02 A3034 RMK AO2 SLP262 T01501017

More Conditions Fewer Conditions

10-Day Weather Forecast

Almanac

Astronomy

Oct. 31, 2014 Rise Set
Actual Time
Civil Twilight
Nautical Twilight
Astronomical Twilight
Moon
Length of Visible Light
Length of Day
Tomorrow will be .
, % of the Moon is Illuminated

Today's Extremes

State Highs State Lows

Community

WunderPhotos

Upload Photos

1,766,786 photos uploaded!

WunderBlogs® & News

Nearby

Air Quality

  Air Quality AQ Index Pollutant
Not available.

Snow Depth

Station Depth Elevation

Earthquake Activity

City Distance Mag. Time & Date
Minimum magnitude displayed is 2.5.

Coastal Water Temperatures

Place Temperature

Nearby Weather Stations